createdAt,value
2022-08-22T00:00:06.916Z,14.44
2022-08-22T00:15:02.977Z,14.28
2022-08-22T00:30:00.660Z,14.06
2022-08-22T00:44:59.807Z,13.83
2022-08-22T01:00:29.057Z,13.67
2022-08-22T01:14:59.757Z,13.44
2022-08-22T01:30:03.227Z,13.39
2022-08-22T01:44:59.603Z,13.44
2022-08-22T02:00:04.969Z,13.39
2022-08-22T02:15:05.772Z,13.28
2022-08-22T02:30:06.194Z,13.22
2022-08-22T02:45:03.821Z,13.17
2022-08-22T03:00:02.894Z,13.28
2022-08-22T03:15:05.208Z,13.39
2022-08-22T03:30:01.420Z,13.33
2022-08-22T03:45:01.962Z,13.28
2022-08-22T04:00:01.115Z,13.5
2022-08-22T04:15:03.082Z,13.56
2022-08-22T04:30:03.700Z,13.67
2022-08-22T04:45:06.074Z,13.61
2022-08-22T05:00:05.372Z,13.67
2022-08-22T05:15:01.772Z,13.78
2022-08-22T05:30:03.889Z,14.06
2022-08-22T05:45:01.574Z,14.39
2022-08-22T06:00:02.336Z,14.89
2022-08-22T06:15:11.825Z,15.5
2022-08-22T06:30:06.129Z,16.22
2022-08-22T06:45:03.538Z,16.56
2022-08-22T07:00:02.722Z,16.67
2022-08-22T07:15:01.908Z,17
2022-08-22T07:30:04.140Z,17.5
2022-08-22T07:45:06.245Z,18.06
2022-08-22T08:00:06.666Z,18.67
2022-08-22T08:15:02.434Z,19.06
2022-08-22T08:30:04.292Z,19.5
2022-08-22T08:45:06.085Z,20
2022-08-22T09:00:06.650Z,20.44
2022-08-22T09:15:02.829Z,20.83
2022-08-22T09:30:01.938Z,20.94
2022-08-22T09:45:04.034Z,21
2022-08-22T10:00:00.298Z,21.17
2022-08-22T10:14:59.443Z,21.5
2022-08-22T10:30:05.716Z,21.61
2022-08-22T10:45:11.981Z,21.67
2022-08-22T11:00:07.818Z,21.72
2022-08-22T11:15:44.799Z,22.33
2022-08-22T11:30:03.301Z,23.06
2022-08-22T11:45:01.030Z,23.89
2022-08-22T12:00:01.395Z,24.44
2022-08-22T12:15:00.177Z,25
2022-08-22T12:30:01.946Z,25.44
2022-08-22T12:45:00.685Z,25.33
2022-08-22T13:00:05.578Z,24.56
2022-08-22T13:15:05.626Z,23.44
2022-08-22T13:30:02.956Z,22.61
2022-08-22T13:45:04.682Z,22.17
2022-08-22T14:00:05.910Z,22.06
2022-08-22T14:15:03.846Z,21.94
2022-08-22T14:30:01.941Z,21.78
2022-08-22T14:45:06.548Z,21.78
2022-08-22T15:00:04.161Z,21.78
2022-08-22T15:15:05.165Z,21.72
2022-08-22T15:30:06.193Z,21.78
2022-08-22T15:45:01.233Z,21.89
2022-08-22T15:59:59.346Z,22.22
2022-08-22T16:15:06.423Z,22.72
2022-08-22T16:30:04.495Z,22.72
2022-08-22T16:44:59.415Z,22.67
2022-08-22T17:00:03.511Z,22.61
2022-08-22T17:15:03.030Z,22.28
2022-08-22T17:30:04.543Z,22.11
2022-08-22T17:45:00.764Z,21.78
2022-08-22T18:00:02.962Z,21.11
2022-08-22T18:15:06.970Z,20.56
2022-08-22T18:30:05.064Z,20.17
2022-08-22T18:44:59.794Z,19.72
2022-08-22T19:00:06.487Z,19.39
2022-08-22T19:15:05.186Z,19.06
2022-08-22T19:29:59.402Z,18.83
2022-08-22T19:45:00.211Z,18.28
2022-08-22T20:00:00.989Z,18
2022-08-22T20:15:00.303Z,17.67
2022-08-22T20:30:02.621Z,17.5
2022-08-22T20:45:12.286Z,17.33
2022-08-22T21:00:21.020Z,17.22
2022-08-22T21:15:03.812Z,17.06
2022-08-22T21:30:00.992Z,17.06
2022-08-22T21:45:01.423Z,16.89
2022-08-22T22:00:06.847Z,16.83
2022-08-22T22:15:03.410Z,16.61
2022-08-22T22:30:02.882Z,16.39
2022-08-22T22:45:00.801Z,16.33
2022-08-22T23:00:01.845Z,16.22
2022-08-22T23:15:05.878Z,16.06
2022-08-22T23:30:06.941Z,15.89
2022-08-22T23:45:00.482Z,15.72
